TimeEDT,TemperatureF,Dew PointF,Humidity,Sea Level PressureIn,VisibilityMPH,Wind Direction,Wind SpeedMPH,Gust SpeedMPH,PrecipitationIn,Events,Conditions,WindDirDegrees,DateUTC
12:15 AM,45.9,43.2,90,29.74,10.0,SSW,3.5,-,N/A,,Overcast,200,2012-10-20 04:15:00
12:35 AM,46.0,43.3,90,29.74,10.0,South,5.8,-,N/A,,Overcast,190,2012-10-20 04:35:00
12:55 AM,46.4,43.3,89,29.74,10.0,SSW,5.8,-,N/A,,Overcast,200,2012-10-20 04:55:00
1:15 AM,46.4,43.3,89,29.74,10.0,South,4.6,-,N/A,,Overcast,190,2012-10-20 05:15:00
1:35 AM,46.4,43.2,88,29.74,10.0,SSW,4.6,-,N/A,,Overcast,210,2012-10-20 05:35:00
1:55 AM,46.6,43.3,88,29.74,10.0,South,5.8,-,N/A,,Overcast,190,2012-10-20 05:55:00
2:15 AM,46.6,43.3,88,29.74,10.0,South,6.9,-,N/A,,Overcast,190,2012-10-20 06:15:00
2:35 AM,46.6,43.2,88,29.75,10.0,SW,4.6,-,N/A,,Overcast,230,2012-10-20 06:35:00
2:55 AM,46.9,43.0,86,29.75,10.0,SSW,5.8,-,N/A,,Overcast,210,2012-10-20 06:55:00
3:15 AM,46.6,42.8,87,29.75,10.0,South,6.9,-,N/A,,Overcast,190,2012-10-20 07:15:00
3:35 AM,46.6,43.0,87,29.76,10.0,SSW,5.8,-,N/A,,Overcast,200,2012-10-20 07:35:00
3:55 AM,46.6,42.8,87,29.76,10.0,SSW,3.5,-,N/A,,Overcast,200,2012-10-20 07:55:00
4:15 AM,46.6,42.8,87,29.76,10.0,SSW,4.6,-,N/A,,Overcast,210,2012-10-20 08:15:00
4:35 AM,46.6,42.8,87,29.76,10.0,SSW,4.6,-,N/A,,Overcast,200,2012-10-20 08:35:00
5:35 AM,46.4,42.4,86,29.77,10.0,South,4.6,-,N/A,,Overcast,190,2012-10-20 09:35:00
5:55 AM,46.4,42.3,85,29.77,10.0,SSW,4.6,-,N/A,,Overcast,200,2012-10-20 09:55:00
6:15 AM,46.4,41.9,84,29.77,10.0,SSW,5.8,-,N/A,,Mostly Cloudy,210,2012-10-20 10:15:00
6:35 AM,45.9,41.9,86,29.78,10.0,SSW,3.5,-,N/A,,Scattered Clouds,210,2012-10-20 10:35:00
6:55 AM,46.4,42.1,85,29.78,10.0,SSW,4.6,-,N/A,,Mostly Cloudy,210,2012-10-20 10:55:00
7:15 AM,45.9,41.9,86,29.79,10.0,SSW,5.8,-,N/A,,Mostly Cloudy,210,2012-10-20 11:15:00
7:35 AM,45.3,41.4,86,29.79,10.0,SSW,5.8,-,N/A,,Scattered Clouds,200,2012-10-20 11:35:00
8:15 AM,45.0,41.5,88,29.80,10.0,SSW,5.8,-,N/A,,Mostly Cloudy,200,2012-10-20 12:15:00
8:35 AM,45.5,41.9,87,29.80,10.0,SSW,5.8,-,N/A,,Mostly Cloudy,200,2012-10-20 12:35:00
9:15 AM,46.9,42.6,85,29.81,10.0,SSW,3.5,-,N/A,,Mostly Cloudy,200,2012-10-20 13:15:00
9:35 AM,48.4,43.2,82,29.82,10.0,SSW,5.8,-,N/A,,Mostly Cloudy,210,2012-10-20 13:35:00
9:55 AM,48.6,43.2,82,29.81,10.0,SSW,5.8,-,N/A,,Mostly Cloudy,210,2012-10-20 13:55:00
10:15 AM,49.5,43.0,78,29.81,10.0,SSW,8.1,-,N/A,,Mostly Cloudy,210,2012-10-20 14:15:00
10:35 AM,49.8,42.8,77,29.82,10.0,WSW,9.2,-,N/A,,Mostly Cloudy,240,2012-10-20 14:35:00
10:55 AM,50.0,42.8,76,29.84,10.0,WSW,11.5,-,N/A,,Overcast,240,2012-10-20 14:55:00
11:15 AM,49.8,42.8,77,29.84,10.0,WSW,12.7,17.3,N/A,,Overcast,240,2012-10-20 15:15:00
11:35 AM,50.2,43.0,76,29.84,10.0,WSW,11.5,-,N/A,,Overcast,240,2012-10-20 15:35:00
11:55 AM,50.4,43.5,77,29.85,10.0,SW,6.9,16.1,N/A,,Overcast,230,2012-10-20 15:55:00
12:15 PM,50.7,43.3,76,29.85,10.0,WSW,6.9,-,N/A,,Overcast,240,2012-10-20 16:15:00
12:35 PM,50.9,43.5,76,29.85,10.0,WSW,6.9,16.1,N/A,,Overcast,240,2012-10-20 16:35:00
12:55 PM,51.8,43.2,72,29.85,10.0,SW,9.2,-,N/A,,Overcast,230,2012-10-20 16:55:00
1:15 PM,51.8,42.4,70,29.85,10.0,West,13.8,20.7,N/A,,Mostly Cloudy,260,2012-10-20 17:15:00
1:35 PM,54.9,43.7,66,29.84,10.0,WSW,13.8,19.6,N/A,,Mostly Cloudy,240,2012-10-20 17:35:00
1:55 PM,54.1,41.7,63,29.84,10.0,WSW,17.3,23.0,N/A,,Mostly Cloudy,240,2012-10-20 17:55:00
2:15 PM,53.6,42.1,65,29.85,10.0,West,13.8,18.4,N/A,Rain,Light Rain,270,2012-10-20 18:15:00
2:35 PM,50.0,45.3,84,29.86,5.0,WNW,10.4,-,N/A,Rain,Light Rain,300,2012-10-20 18:35:00
2:55 PM,50.0,45.7,85,29.86,10.0,West,9.2,-,N/A,Rain,Light Rain,280,2012-10-20 18:55:00
3:15 PM,49.6,46.0,87,29.86,10.0,WSW,9.2,-,N/A,Rain,Light Rain,250,2012-10-20 19:15:00
3:35 PM,50.7,45.9,83,29.86,10.0,WSW,8.1,-,N/A,,Mostly Cloudy,240,2012-10-20 19:35:00
4:35 PM,52.5,44.2,73,29.87,10.0,West,12.7,18.4,N/A,,Scattered Clouds,260,2012-10-20 20:35:00
4:55 PM,53.6,43.0,67,29.88,10.0,WSW,12.7,-,N/A,,Scattered Clouds,250,2012-10-20 20:55:00
5:15 PM,51.8,42.3,70,29.89,10.0,WSW,11.5,17.3,N/A,,Scattered Clouds,240,2012-10-20 21:15:00
5:55 PM,51.8,42.8,71,29.90,10.0,WSW,11.5,-,N/A,,Mostly Cloudy,240,2012-10-20 21:55:00
6:15 PM,51.1,43.0,74,29.90,10.0,WSW,8.1,-,N/A,,Scattered Clouds,240,2012-10-20 22:15:00
6:35 PM,51.1,43.7,76,29.91,10.0,West,13.8,25.3,N/A,Rain,Light Rain,260,2012-10-20 22:35:00
6:55 PM,50.0,44.1,80,29.91,10.0,West,6.9,-,N/A,,Overcast,270,2012-10-20 22:55:00
7:15 PM,49.1,44.6,84,29.92,10.0,Calm,Calm,-,N/A,,Overcast,0,2012-10-20 23:15:00
7:35 PM,49.1,43.9,82,29.93,10.0,Calm,Calm,-,N/A,,Mostly Cloudy,0,2012-10-20 23:35:00
7:55 PM,47.1,43.7,88,29.93,10.0,Calm,Calm,-,N/A,,Scattered Clouds,0,2012-10-20 23:55:00
8:15 PM,44.8,42.6,92,29.94,10.0,Calm,Calm,-,N/A,,Clear,0,2012-10-21 00:15:00
8:35 PM,43.2,41.5,94,29.94,7.0,Calm,Calm,-,N/A,,Scattered Clouds,0,2012-10-21 00:35:00
9:15 PM,44.1,42.8,95,29.94,10.0,Calm,Calm,-,N/A,,Scattered Clouds,0,2012-10-21 01:15:00
9:35 PM,43.0,41.7,95,29.95,5.0,Calm,Calm,-,N/A,,Clear,0,2012-10-21 01:35:00
9:55 PM,41.9,40.6,95,29.96,1.8,Calm,Calm,-,N/A,,Mist,0,2012-10-21 01:55:00
10:15 PM,41.2,40.1,96,29.97,7.0,Calm,Calm,-,N/A,,Clear,0,2012-10-21 02:15:00
10:35 PM,41.9,40.6,95,29.97,4.0,Calm,Calm,-,N/A,,Mostly Cloudy,0,2012-10-21 02:35:00
11:15 PM,40.3,39.2,96,29.99,4.0,Calm,Calm,-,N/A,,Scattered Clouds,0,2012-10-21 03:15:00
11:35 PM,39.7,38.7,96,30.00,1.0,Calm,Calm,-,N/A,,Mist,0,2012-10-21 03:35:00
11:55 PM,38.8,37.8,96,30.00,0.5,Calm,Calm,-,N/A,Fog,Fog,0,2012-10-21 03:55:00